createdAt,value
2019-01-24T00:00:57.589Z,-3.90
2019-01-24T00:03:25.785Z,-3.94
2019-01-24T00:05:53.998Z,-4.02
2019-01-24T00:08:22.199Z,-4.11
2019-01-24T00:10:50.401Z,-4.19
2019-01-24T00:13:18.591Z,-4.20
2019-01-24T00:15:46.799Z,-4.23
2019-01-24T00:18:15.092Z,-4.26
2019-01-24T00:20:43.288Z,-4.26
2019-01-24T00:23:11.481Z,-4.21
2019-01-24T00:25:39.742Z,-4.17
2019-01-24T00:28:07.881Z,-4.15
2019-01-24T00:30:36.084Z,-4.14
2019-01-24T00:33:04.281Z,-4.16
2019-01-24T00:35:32.489Z,-4.16
2019-01-24T00:38:00.684Z,-4.15
2019-01-24T00:40:28.900Z,-4.18
2019-01-24T00:42:57.089Z,-4.18
2019-01-24T00:45:25.303Z,-4.18
2019-01-24T00:47:53.497Z,-4.19
2019-01-24T00:50:21.701Z,-4.22
2019-01-24T00:52:49.891Z,-4.24
2019-01-24T00:55:18.098Z,-4.25
2019-01-24T00:57:46.294Z,-4.27
2019-01-24T01:00:54.604Z,-4.25
2019-01-24T01:03:22.800Z,-4.26
2019-01-24T01:06:10.382Z,-4.24
2019-01-24T01:08:38.576Z,-4.28
2019-01-24T01:11:06.788Z,-4.31
2019-01-24T01:13:54.358Z,-4.30
2019-01-24T01:16:22.561Z,-4.29
2019-01-24T01:18:50.762Z,-4.26
2019-01-24T01:21:18.975Z,-4.21
2019-01-24T01:23:47.163Z,-4.16
2019-01-24T01:26:15.376Z,-4.11
2019-01-24T01:29:03.001Z,-4.11
2019-01-24T01:31:31.209Z,-4.09
2019-01-24T01:33:59.403Z,-4.06
2019-01-24T01:36:27.617Z,-4.00
2019-01-24T01:38:55.814Z,-3.99
2019-01-24T01:41:24.020Z,-4.02
2019-01-24T01:43:52.217Z,-4.06
2019-01-24T01:46:20.423Z,-4.07
2019-01-24T01:48:48.630Z,-4.03
2019-01-24T01:51:16.837Z,-3.97
2019-01-24T01:53:45.038Z,-3.93
2019-01-24T01:56:13.247Z,-3.90
2019-01-24T01:58:41.446Z,-3.87
2019-01-24T02:01:09.649Z,-3.86
2019-01-24T02:03:37.846Z,-3.80
2019-01-24T02:06:06.053Z,-3.78
2019-01-24T02:08:34.252Z,-3.79
2019-01-24T02:11:02.468Z,-3.77
2019-01-24T02:13:30.666Z,-3.80
2019-01-24T02:15:58.859Z,-3.78
2019-01-24T02:18:27.068Z,-3.78
2019-01-24T02:20:55.267Z,-3.78
2019-01-24T02:23:23.481Z,-3.76
2019-01-24T02:25:51.673Z,-3.74
2019-01-24T02:28:19.879Z,-3.67
2019-01-24T02:30:48.072Z,-3.63
2019-01-24T02:33:16.281Z,-3.55
2019-01-24T02:35:44.467Z,-3.50
2019-01-24T02:38:12.677Z,-3.48
2019-01-24T02:40:40.871Z,-3.48
2019-01-24T02:43:09.084Z,-3.43
2019-01-24T02:45:37.273Z,-3.41
2019-01-24T02:48:05.553Z,-3.40
2019-01-24T02:50:33.749Z,-3.40
2019-01-24T02:53:01.954Z,-3.45
2019-01-24T02:58:19.036Z,-3.43
2019-01-24T03:00:47.234Z,-3.46
2019-01-24T03:03:15.449Z,-3.47
2019-01-24T03:05:43.640Z,-3.49
2019-01-24T03:08:11.853Z,-3.48
2019-01-24T03:10:40.042Z,-3.51
2019-01-24T03:13:08.248Z,-3.52
2019-01-24T03:15:36.444Z,-3.50
2019-01-24T03:18:04.655Z,-3.51
2019-01-24T03:20:32.855Z,-3.48
2019-01-24T03:23:01.132Z,-3.42
2019-01-24T03:25:29.326Z,-3.40
2019-01-24T03:28:37.641Z,-3.33
2019-01-24T03:31:05.841Z,-3.32
2019-01-24T03:33:34.053Z,-3.35
2019-01-24T03:36:02.248Z,-3.34
2019-01-24T03:38:30.455Z,-3.30
2019-01-24T03:40:58.652Z,-3.30
2019-01-24T03:43:26.860Z,-3.23
2019-01-24T03:45:55.057Z,-3.23
2019-01-24T03:48:23.284Z,-3.17
2019-01-24T03:50:51.468Z,-3.16
2019-01-24T03:53:19.678Z,-3.21
2019-01-24T03:55:47.867Z,-3.32
2019-01-24T03:58:16.072Z,-3.34
2019-01-24T04:00:44.266Z,-3.30
2019-01-24T04:03:12.473Z,-3.30
2019-01-24T04:05:40.669Z,-3.33
2019-01-24T04:08:08.872Z,-3.36
2019-01-24T04:10:37.117Z,-3.41
2019-01-24T04:13:05.283Z,-3.43
2019-01-24T04:15:33.477Z,-3.48
2019-01-24T04:18:01.686Z,-3.50
2019-01-24T04:20:29.883Z,-3.50
2019-01-24T04:22:58.100Z,-3.46
2019-01-24T04:25:26.330Z,-3.42
2019-01-24T04:27:54.526Z,-3.37
2019-01-24T04:31:02.842Z,-3.36
2019-01-24T04:33:31.044Z,-3.36
2019-01-24T04:35:59.242Z,-3.35
2019-01-24T04:38:27.454Z,-3.34
2019-01-24T04:44:09.133Z,-3.30
2019-01-24T04:46:37.324Z,-3.27
2019-01-24T04:49:05.522Z,-3.25
2019-01-24T04:51:33.704Z,-3.27
2019-01-24T04:54:21.346Z,-3.20
2019-01-24T04:56:49.531Z,-3.12
2019-01-24T04:59:37.234Z,-3.04
2019-01-24T05:02:05.423Z,-2.95
2019-01-24T05:04:33.637Z,-2.89
2019-01-24T05:07:01.827Z,-2.82
2019-01-24T05:09:30.037Z,-2.74
2019-01-24T05:11:58.226Z,-2.68
2019-01-24T05:14:26.427Z,-2.62
2019-01-24T05:16:54.628Z,-2.56
2019-01-24T05:19:22.840Z,-2.51
2019-01-24T05:21:51.024Z,-2.47
2019-01-24T05:24:19.231Z,-2.49
2019-01-24T05:26:47.436Z,-2.49
2019-01-24T05:29:35.071Z,-2.45
2019-01-24T05:32:03.264Z,-2.45
2019-01-24T05:34:31.460Z,-2.40
2019-01-24T05:36:59.648Z,-2.38
2019-01-24T05:39:27.844Z,-2.35
2019-01-24T05:41:56.048Z,-2.32
2019-01-24T05:44:24.251Z,-2.31
2019-01-24T05:46:52.446Z,-2.33
2019-01-24T05:49:20.653Z,-2.33
2019-01-24T05:51:48.849Z,-2.32
2019-01-24T05:54:17.073Z,-2.31
2019-01-24T05:56:45.263Z,-2.30
2019-01-24T05:59:32.897Z,-2.26
2019-01-24T06:02:01.157Z,-2.26
2019-01-24T06:04:29.361Z,-2.26
2019-01-24T06:07:16.993Z,-2.19
2019-01-24T06:09:45.193Z,-2.19
2019-01-24T06:12:13.402Z,-2.18
2019-01-24T06:14:41.591Z,-2.20
2019-01-24T06:17:09.779Z,-2.20
2019-01-24T06:19:37.973Z,-2.21
2019-01-24T06:22:06.179Z,-2.20
2019-01-24T06:24:34.373Z,-2.19
2019-01-24T06:27:02.581Z,-2.23
2019-01-24T06:29:30.780Z,-2.26
2019-01-24T06:31:58.982Z,-2.29
2019-01-24T06:34:27.194Z,-2.30
2019-01-24T06:36:55.392Z,-2.32
2019-01-24T06:39:23.584Z,-2.31
2019-01-24T06:41:51.797Z,-2.36
2019-01-24T06:44:19.994Z,-2.39
2019-01-24T06:47:07.313Z,-2.44
2019-01-24T06:49:35.498Z,-2.44
2019-01-24T06:52:03.714Z,-2.43
2019-01-24T06:54:31.907Z,-2.44
2019-01-24T06:57:00.111Z,-2.40
2019-01-24T06:59:47.422Z,-2.33
2019-01-24T07:02:15.628Z,-2.30
2019-01-24T07:04:43.823Z,-2.30
2019-01-24T07:07:31.473Z,-2.33
2019-01-24T07:09:59.662Z,-2.33
2019-01-24T07:12:47.312Z,-2.29
2019-01-24T07:15:28.181Z,-2.29
2019-01-24T07:17:56.399Z,-2.25
2019-01-24T07:20:24.595Z,-2.25
2019-01-24T07:22:52.802Z,-2.26
2019-01-24T07:28:35.107Z,-2.28
2019-01-24T07:31:03.306Z,-2.28
2019-01-24T07:33:31.516Z,-2.25
2019-01-24T07:36:02.286Z,-2.22
2019-01-24T07:38:29.670Z,-2.13
2019-01-24T07:40:57.875Z,-2.15
2019-01-24T07:43:26.091Z,-2.15
2019-01-24T07:45:54.287Z,-2.11
2019-01-24T07:48:22.496Z,-2.13
2019-01-24T07:50:50.696Z,-2.13
2019-01-24T07:53:18.904Z,-2.08
2019-01-24T07:55:47.097Z,-1.99
2019-01-24T07:58:15.309Z,-1.94
2019-01-24T08:00:43.504Z,-1.94
2019-01-24T08:03:11.715Z,-1.89
2019-01-24T08:05:39.914Z,-1.82
2019-01-24T08:08:08.119Z,-1.78
2019-01-24T08:10:36.313Z,-1.80
2019-01-24T08:13:23.954Z,-1.65
2019-01-24T08:15:52.144Z,-1.65
2019-01-24T08:18:20.360Z,-1.65
2019-01-24T08:20:48.556Z,-1.66
2019-01-24T08:23:16.753Z,-1.67
2019-01-24T08:26:25.070Z,-1.61
2019-01-24T08:28:53.282Z,-1.54
2019-01-24T08:34:08.734Z,-1.50
2019-01-24T08:36:36.933Z,-1.50
2019-01-24T08:39:45.256Z,-1.53
2019-01-24T08:42:13.452Z,-1.59
2019-01-24T08:44:41.655Z,-1.68
2019-01-24T08:47:09.854Z,-1.65
2019-01-24T08:49:38.096Z,-1.68
2019-01-24T08:52:06.290Z,-1.74
2019-01-24T08:54:34.486Z,-1.72
2019-01-24T08:57:02.698Z,-1.67
2019-01-24T09:00:11.017Z,-1.66
2019-01-24T09:02:39.206Z,-1.70
2019-01-24T09:05:47.533Z,-1.75
2019-01-24T09:08:15.724Z,-1.77
2019-01-24T09:10:43.937Z,-1.74
2019-01-24T09:13:12.202Z,-1.71
2019-01-24T09:15:40.415Z,-1.71
2019-01-24T09:18:28.045Z,-1.75
2019-01-24T09:20:56.945Z,-1.75
2019-01-24T09:23:26.192Z,-1.75
2019-01-24T09:25:54.401Z,-1.79
2019-01-24T09:28:22.593Z,-1.76
2019-01-24T09:30:50.805Z,-1.72
2019-01-24T09:36:06.279Z,-1.63
2019-01-24T09:38:34.476Z,-1.57
2019-01-24T09:41:02.688Z,-1.56
2019-01-24T09:43:30.885Z,-1.63
2019-01-24T09:45:59.101Z,-1.62
2019-01-24T09:48:27.299Z,-1.57
2019-01-24T09:50:55.509Z,-1.55
2019-01-24T09:53:23.708Z,-1.57
2019-01-24T09:55:51.919Z,-1.56
2019-01-24T09:58:20.113Z,-1.55
2019-01-24T10:00:48.309Z,-1.62
2019-01-24T10:03:16.517Z,-1.60
2019-01-24T10:05:44.713Z,-1.56
2019-01-24T10:08:12.922Z,-1.56
2019-01-24T10:10:41.123Z,-1.57
2019-01-24T10:13:09.333Z,-1.59
2019-01-24T10:15:37.534Z,-1.61
2019-01-24T10:18:45.848Z,-1.60
2019-01-24T10:21:33.521Z,-1.49
2019-01-24T10:24:01.681Z,-1.49
2019-01-24T10:26:29.880Z,-1.36
2019-01-24T10:28:58.090Z,-1.35
2019-01-24T10:31:46.496Z,-1.31
2019-01-24T10:34:15.738Z,-1.31
2019-01-24T10:36:44.008Z,-1.29
2019-01-24T10:39:12.221Z,-1.31
2019-01-24T10:41:40.417Z,-1.31
2019-01-24T10:44:08.627Z,-1.28
2019-01-24T10:46:36.824Z,-1.24
2019-01-24T10:49:05.036Z,-1.16
2019-01-24T10:51:33.233Z,-1.08
2019-01-24T10:54:01.441Z,-1.06
2019-01-24T10:56:29.638Z,-1.08
2019-01-24T10:58:57.856Z,-1.16
2019-01-24T11:01:26.059Z,-1.16
2019-01-24T11:03:54.278Z,-1.19
2019-01-24T11:06:22.476Z,-1.20
2019-01-24T11:08:50.681Z,-1.23
2019-01-24T11:11:18.879Z,-1.23
2019-01-24T11:13:47.089Z,-1.24
2019-01-24T11:16:15.284Z,-1.24
2019-01-24T11:18:43.516Z,-1.23
2019-01-24T11:21:11.712Z,-1.27
2019-01-24T11:23:39.912Z,-1.31
2019-01-24T11:26:08.143Z,-1.28
2019-01-24T11:28:36.335Z,-1.23
2019-01-24T11:31:04.557Z,-1.21
2019-01-24T11:33:32.768Z,-1.19
2019-01-24T11:36:00.984Z,-1.18
2019-01-24T11:38:29.185Z,-1.21
2019-01-24T11:40:57.416Z,-1.22
2019-01-24T11:43:25.612Z,-1.23
2019-01-24T11:45:53.822Z,-1.18
2019-01-24T11:48:22.020Z,-1.12
2019-01-24T11:50:51.167Z,-1.05
2019-01-24T11:53:20.150Z,-1.03
2019-01-24T11:55:48.365Z,-0.99
2019-01-24T11:58:16.568Z,-0.97
2019-01-24T12:03:23.906Z,-0.86
2019-01-24T12:05:52.127Z,-0.81
2019-01-24T12:08:20.327Z,-0.77
2019-01-24T12:10:48.542Z,-0.73
2019-01-24T12:13:16.745Z,-0.75
2019-01-24T12:15:52.351Z,-0.82
2019-01-24T12:18:20.549Z,-0.86
2019-01-24T12:20:48.769Z,-0.83
2019-01-24T12:23:16.964Z,-0.77
2019-01-24T12:25:45.169Z,-0.75
2019-01-24T12:28:13.362Z,-0.76
2019-01-24T12:30:41.587Z,-0.73
2019-01-24T12:33:09.779Z,-0.72
2019-01-24T12:35:37.992Z,-0.70
2019-01-24T12:38:06.187Z,-0.68
2019-01-24T12:40:34.412Z,-0.62
2019-01-24T12:43:02.606Z,-0.62
2019-01-24T12:46:10.921Z,-0.65
2019-01-24T12:48:39.184Z,-0.56
2019-01-24T12:51:07.388Z,-0.47
2019-01-24T12:53:35.588Z,-0.44
2019-01-24T12:56:03.797Z,-0.47
2019-01-24T12:58:31.989Z,-0.46
2019-01-24T13:01:00.207Z,-0.43
2019-01-24T13:03:28.400Z,-0.36
2019-01-24T13:05:56.592Z,-0.35
2019-01-24T13:08:24.807Z,-0.42
2019-01-24T13:10:53.005Z,-0.36
2019-01-24T13:13:21.208Z,-0.35
2019-01-24T13:15:49.403Z,-0.32
2019-01-24T13:18:17.696Z,-0.26
2019-01-24T13:20:45.911Z,-0.15
2019-01-24T13:23:14.108Z,-0.14
2019-01-24T13:25:42.305Z,-0.15
2019-01-24T13:28:10.529Z,-0.12
2019-01-24T13:30:38.725Z,-0.12
2019-01-24T13:33:06.930Z,-0.20
2019-01-24T13:35:35.124Z,-0.12
2019-01-24T13:38:03.340Z,-0.09
2019-01-24T13:43:45.476Z,0.04
2019-01-24T13:46:13.668Z,0.06
2019-01-24T13:48:41.883Z,0.06
2019-01-24T13:51:10.079Z,-0.03
2019-01-24T13:53:57.708Z,-0.08
2019-01-24T13:56:25.916Z,-0.07
2019-01-24T13:58:54.129Z,-0.09
2019-01-24T14:01:22.326Z,-0.04
2019-01-24T14:04:30.642Z,0.04
2019-01-24T14:06:58.829Z,0.05
2019-01-24T14:09:27.050Z,0.09
2019-01-24T14:11:55.238Z,0.06
2019-01-24T14:14:23.465Z,-0.06
2019-01-24T14:16:51.670Z,-0.10
2019-01-24T14:19:19.896Z,-0.10
2019-01-24T14:21:48.100Z,-0.07
2019-01-24T14:24:16.305Z,-0.07
2019-01-24T14:26:44.499Z,-0.12
2019-01-24T14:29:12.716Z,-0.21
2019-01-24T14:31:40.910Z,-0.29
2019-01-24T14:34:09.115Z,-0.33
2019-01-24T14:36:37.318Z,-0.37
2019-01-24T14:39:45.632Z,-0.39
2019-01-24T14:42:13.829Z,-0.40
2019-01-24T14:44:42.037Z,-0.32
2019-01-24T14:47:10.223Z,-0.30
2019-01-24T14:49:38.433Z,-0.33
2019-01-24T14:52:06.640Z,-0.29
2019-01-24T14:54:34.851Z,-0.32
2019-01-24T14:57:03.045Z,-0.29
2019-01-24T14:59:31.281Z,-0.30
2019-01-24T15:01:59.477Z,-0.33
2019-01-24T15:04:27.691Z,-0.37
2019-01-24T15:06:55.883Z,-0.39
2019-01-24T15:09:24.089Z,-0.37
2019-01-24T15:11:52.281Z,-0.33
2019-01-24T15:14:20.483Z,-0.25
2019-01-24T15:16:48.685Z,-0.17
2019-01-24T15:19:16.885Z,-0.12
2019-01-24T15:21:45.085Z,-0.13
2019-01-24T15:24:13.337Z,-0.20
2019-01-24T15:26:41.532Z,-0.25
2019-01-24T15:29:09.737Z,-0.23
2019-01-24T15:31:37.941Z,-0.23
2019-01-24T15:34:06.140Z,-0.16
2019-01-24T15:36:34.352Z,-0.07
2019-01-24T15:39:02.620Z,-0.02
2019-01-24T15:41:30.854Z,-0.01
2019-01-24T15:43:59.048Z,-0.07
2019-01-24T15:46:27.267Z,-0.11
2019-01-24T15:48:55.463Z,-0.17
2019-01-24T15:51:23.672Z,-0.25
2019-01-24T15:53:51.872Z,-0.34
2019-01-24T15:56:20.084Z,-0.42
2019-01-24T15:58:48.278Z,-0.43
2019-01-24T16:01:16.491Z,-0.47
2019-01-24T16:03:45.641Z,-0.46
2019-01-24T16:06:14.613Z,-0.41
2019-01-24T16:08:42.818Z,-0.41
2019-01-24T16:11:11.025Z,-0.48
2019-01-24T16:13:39.222Z,-0.53
2019-01-24T16:16:07.431Z,-0.55
2019-01-24T16:18:35.631Z,-0.58
2019-01-24T16:21:03.842Z,-0.57
2019-01-24T16:23:32.034Z,-0.52
2019-01-24T16:26:00.241Z,-0.50
2019-01-24T16:28:28.445Z,-0.48
2019-01-24T16:30:56.774Z,-0.48
2019-01-24T16:33:24.963Z,-0.45
2019-01-24T16:35:53.175Z,-0.45
2019-01-24T16:38:21.376Z,-0.46
2019-01-24T16:40:49.781Z,-0.46
2019-01-24T16:43:17.977Z,-0.50
2019-01-24T16:45:46.164Z,-0.49
2019-01-24T16:48:14.374Z,-0.42
2019-01-24T16:50:42.568Z,-0.41
2019-01-24T16:53:10.768Z,-0.43
2019-01-24T16:55:38.962Z,-0.45
2019-01-24T16:58:07.171Z,-0.48
2019-01-24T17:00:54.860Z,-0.50
2019-01-24T17:03:23.072Z,-0.49
2019-01-24T17:05:51.323Z,-0.41
2019-01-24T17:08:19.550Z,-0.42
2019-01-24T17:10:47.761Z,-0.50
2019-01-24T17:13:15.971Z,-0.46
2019-01-24T17:15:44.167Z,-0.39
2019-01-24T17:18:12.377Z,-0.39
2019-01-24T17:20:40.574Z,-0.43
2019-01-24T17:23:08.791Z,-0.50
2019-01-24T17:25:36.987Z,-0.56
2019-01-24T17:28:05.198Z,-0.54
2019-01-24T17:30:34.941Z,-0.48
2019-01-24T17:33:03.341Z,-0.45
2019-01-24T17:35:31.537Z,-0.48
2019-01-24T17:37:59.742Z,-0.46
2019-01-24T17:43:28.533Z,-0.48
2019-01-24T17:45:56.735Z,-0.42
2019-01-24T17:48:24.952Z,-0.35
2019-01-24T17:50:53.142Z,-0.36
2019-01-24T17:53:21.415Z,-0.45
2019-01-24T17:55:49.610Z,-0.54
2019-01-24T17:58:17.816Z,-0.55
2019-01-24T18:01:05.130Z,-0.56
2019-01-24T18:03:33.345Z,-0.57
2019-01-24T18:06:01.534Z,-0.61
2019-01-24T18:08:31.416Z,-0.62
2019-01-24T18:10:59.675Z,-0.61
2019-01-24T18:13:27.883Z,-0.65
2019-01-24T18:15:56.306Z,-0.65
2019-01-24T18:18:24.736Z,-0.63
2019-01-24T18:20:53.341Z,-0.62
2019-01-24T18:23:21.613Z,-0.59
2019-01-24T18:25:49.820Z,-0.54
2019-01-24T18:28:18.017Z,-0.50
2019-01-24T18:30:46.229Z,-0.51
2019-01-24T18:33:14.435Z,-0.48
2019-01-24T18:35:42.653Z,-0.41
2019-01-24T18:38:10.843Z,-0.43
2019-01-24T18:40:39.065Z,-0.53
2019-01-24T18:46:21.249Z,-0.55
2019-01-24T18:48:49.446Z,-0.43
2019-01-24T18:51:17.651Z,-0.35
2019-01-24T18:53:45.842Z,0.11
2019-01-24T18:56:14.048Z,0.63
2019-01-24T18:58:42.240Z,0.73
2019-01-24T19:01:10.439Z,1.10
2019-01-24T19:03:38.664Z,1.18
2019-01-24T19:06:06.891Z,1.03
2019-01-24T19:08:35.080Z,0.89
2019-01-24T19:11:03.284Z,0.73
2019-01-24T19:13:31.482Z,0.64
2019-01-24T19:15:59.684Z,0.58
2019-01-24T19:18:27.873Z,0.54
2019-01-24T19:20:56.082Z,0.50
2019-01-24T19:23:24.279Z,0.42
2019-01-24T19:25:52.488Z,0.32
2019-01-24T19:28:20.687Z,0.20
2019-01-24T19:30:48.898Z,0.10
2019-01-24T19:33:17.092Z,0.09
2019-01-24T19:35:45.307Z,0.06
2019-01-24T19:38:13.513Z,0.00
2019-01-24T19:40:41.719Z,-0.07
2019-01-24T19:43:09.914Z,-0.10
2019-01-24T19:45:38.149Z,-0.14
2019-01-24T19:48:06.339Z,-0.08
2019-01-24T19:50:34.542Z,-0.06
2019-01-24T19:53:02.736Z,-0.12
2019-01-24T19:55:30.950Z,-0.14
2019-01-24T19:57:59.150Z,-0.11
2019-01-24T20:01:07.471Z,-0.14
2019-01-24T20:03:35.671Z,-0.13
2019-01-24T20:06:03.885Z,-0.13
2019-01-24T20:08:32.078Z,-0.21
2019-01-24T20:11:00.300Z,-0.27
2019-01-24T20:13:28.494Z,-0.39
2019-01-24T20:15:56.703Z,-0.40
2019-01-24T20:18:24.897Z,-0.33
2019-01-24T20:20:53.112Z,-0.33
2019-01-24T20:23:21.311Z,-0.33
2019-01-24T20:25:49.517Z,-0.30
2019-01-24T20:28:17.712Z,-0.28
2019-01-24T20:30:45.925Z,-0.29
2019-01-24T20:33:14.122Z,-0.35
2019-01-24T20:36:22.447Z,-0.37
2019-01-24T20:38:50.651Z,-0.32
2019-01-24T20:41:18.863Z,-0.32
2019-01-24T20:43:47.047Z,-0.34
2019-01-24T20:46:15.253Z,-0.32
2019-01-24T20:48:43.449Z,-0.26
2019-01-24T20:51:11.685Z,-0.20
2019-01-24T20:53:39.890Z,-0.22
2019-01-24T20:56:08.107Z,-0.25
2019-01-24T20:58:36.312Z,-0.20
2019-01-24T21:01:44.630Z,-0.22
2019-01-24T21:04:12.828Z,-0.15
2019-01-24T21:06:41.041Z,-0.15
2019-01-24T21:09:14.627Z,-0.15
2019-01-24T21:11:39.161Z,-0.10
2019-01-24T21:14:07.363Z,-0.06
2019-01-24T21:16:35.573Z,-0.10
2019-01-24T21:19:03.772Z,-0.07
2019-01-24T21:21:31.978Z,-0.05
2019-01-24T21:24:00.177Z,-0.13
2019-01-24T21:26:28.429Z,-0.19
2019-01-24T21:28:56.628Z,-0.21
2019-01-24T21:31:24.825Z,-0.22
2019-01-24T21:33:53.041Z,-0.19
2019-01-24T21:36:21.227Z,-0.14
2019-01-24T21:38:49.443Z,-0.18
2019-01-24T21:41:17.638Z,-0.20
2019-01-24T21:43:45.845Z,-0.17
2019-01-24T21:46:14.044Z,-0.10
2019-01-24T21:48:42.254Z,-0.04
2019-01-24T21:51:11.267Z,-0.01
2019-01-24T21:53:40.382Z,-0.03
2019-01-24T21:56:08.581Z,-0.05
2019-01-24T21:58:36.790Z,-0.06
2019-01-24T22:01:04.990Z,-0.06
2019-01-24T22:03:33.233Z,-0.03
2019-01-24T22:06:01.394Z,-0.01
2019-01-24T22:08:29.608Z,-0.04
2019-01-24T22:10:57.798Z,-0.05
2019-01-24T22:13:26.011Z,-0.05
2019-01-24T22:15:54.209Z,-0.01
2019-01-24T22:18:22.418Z,0.02
2019-01-24T22:20:55.635Z,-0.05
2019-01-24T22:23:20.545Z,-0.15
2019-01-24T22:25:48.739Z,-0.22
2019-01-24T22:28:16.955Z,-0.18
2019-01-24T22:33:34.034Z,-0.07
2019-01-24T22:36:02.366Z,-0.02
2019-01-24T22:38:30.568Z,0.04
2019-01-24T22:40:58.803Z,0.09
2019-01-24T22:43:27.009Z,0.12
2019-01-24T22:45:55.194Z,0.14
2019-01-24T22:48:23.407Z,0.19
2019-01-24T22:50:51.604Z,0.16
2019-01-24T22:53:19.806Z,0.15
2019-01-24T22:55:47.994Z,0.14
2019-01-24T22:58:16.208Z,0.13
2019-01-24T23:03:58.535Z,0.02
2019-01-24T23:06:26.735Z,0.04
2019-01-24T23:08:54.937Z,0.03
2019-01-24T23:11:23.663Z,0.01
2019-01-24T23:13:53.046Z,0.07
2019-01-24T23:16:21.242Z,0.11
2019-01-24T23:18:49.443Z,0.12
2019-01-24T23:21:17.631Z,0.14
2019-01-24T23:23:45.843Z,0.17
2019-01-24T23:26:14.040Z,0.19
2019-01-24T23:28:42.251Z,0.18
2019-01-24T23:31:10.440Z,0.18
2019-01-24T23:33:38.640Z,0.18
2019-01-24T23:36:06.832Z,0.16
2019-01-24T23:38:35.046Z,0.13
2019-01-24T23:41:03.237Z,0.13
2019-01-24T23:43:31.523Z,0.15
2019-01-24T23:45:59.715Z,0.17
2019-01-24T23:48:27.925Z,0.21
2019-01-24T23:50:56.132Z,0.23
2019-01-24T23:53:24.322Z,0.25
2019-01-24T23:55:52.540Z,0.28
2019-01-24T23:58:20.736Z,0.31
